Avoca, IA

11:02 AM CDT on September 20, 2014 (GMT -0500)
Harlan Municipal | Change Station
CLOSE
Current Station
Airport
Location: Harlan,
Elevation: 1230 ft
Nearby Weather Stations

Elev 1230 ft 41.58 °N, 95.34 °W | Updated 7 minutes ago

Partly Cloudy
Partly Cloudy
75 °F
Feels Like 75 °F
N
8
Wind Variable Wind from West
Gusts 14 mph

Today
High -- | Low -- °F
--% Chance of Precip.
Yesterday
High -- | Low -- °F
Precip. -- in
7:06 AM 7:21 PM
Waning Crescent, 11% visible
Pressure 29.95 in
Visibility 8.0 miles
Clouds Clear
Dew Point 70 °F
Humidity 83%
Rainfall 0.18 in
Snow Depth Not available.
UV 5 out of 12
Pollen 6.30 out of 12
Ozone Good
PM2.5 Good
Flu Activity Not available.
METAR KHNR 201555Z AUTO 27007G12KT 8SM CLR 24/21 A2995 RMK AO2

More Conditions Fewer Conditions

Pressure 29.95 in
Visibility 8.0 miles
Clouds Clear
Dew Point 70 °F
Humidity 83%
Rainfall 0.18 in
Snow Depth Not available.
UV 5 out of 12
Pollen 6.30 out of 12
Ozone Good
PM2.5 Good
Flu Activity Not available.
METAR KHNR 201555Z AUTO 27007G12KT 8SM CLR 24/21 A2995 RMK AO2

More Conditions Fewer Conditions

10-Day Weather Forecast

Almanac

Astronomy

Sep. 20, 2014 Rise Set
Actual Time 7:06 AM CDT 7:21 PM CDT
Civil Twilight 6:39 AM CDT 7:49 PM CDT
Nautical Twilight 6:06 AM CDT 8:22 PM CDT
Astronomical Twilight 5:33 AM CDT 8:55 PM CDT
Moon 3:44 AM CDT 5:27 PM CDT
Length of Visible Light 13h 10m
Length of Day
12h 15m
Tomorrow will be 2m 45s shorter.
Waning Crescent, 11% of the Moon is Illuminated
Today
Waning Crescent
Sep 24
New
Oct 1
First Quarter
Oct 8
Full
Oct 15
Last Quarter

Today's Extremes

State Highs State Lows

Community

WunderPhotos

Upload Photos

1,754,888 photos uploaded!

Nearby

Air Quality

  Air Quality AQ Index Pollutant
Yesterday Moderate
PM2.5
Yesterday Good
OZONE
Current Good
PM2.5
Current Good
OZONE
Saturday Good
PM2.5
Saturday Good
OZONE
Saturday Good
CO
Sunday Good
PM2.5
Sunday Good
OZONE
Sunday Good
CO

Snow Depth

Station Depth Elevation
No new snow has been reported.

Earthquake Activity

City Distance Mag. Time & Date
No recent earthquake activity has been reported nearby.
Minimum magnitude displayed is 2.5.

Coastal Water Temperatures

Place Temperature
No Stations Reporting

Nearby Weather Stations